createdAt,value
2022-09-07T00:01:25.951Z,65.70
2022-09-07T00:05:28.956Z,66.10
2022-09-07T00:09:31.679Z,66.90
2022-09-07T00:13:37.934Z,67.00
2022-09-07T00:17:42.085Z,67.00
2022-09-07T00:21:46.421Z,67.10
2022-09-07T00:25:53.903Z,67.20
2022-09-07T00:29:58.246Z,67.40
2022-09-07T00:34:03.121Z,67.50
2022-09-07T00:38:05.881Z,67.50
2022-09-07T00:42:08.818Z,67.40
2022-09-07T00:46:16.584Z,67.40
2022-09-07T00:50:23.006Z,67.30
2022-09-07T00:54:29.302Z,67.60
2022-09-07T00:58:33.556Z,67.60
2022-09-07T01:02:38.159Z,67.60
2022-09-07T01:06:42.428Z,67.70
2022-09-07T01:10:46.770Z,67.50
2022-09-07T01:14:52.702Z,67.60
2022-09-07T01:19:05.965Z,67.10
2022-09-07T01:23:44.348Z,67.10
2022-09-07T01:28:07.822Z,67.00
2022-09-07T01:32:19.678Z,66.40
2022-09-07T01:36:33.520Z,63.20
2022-09-07T01:40:44.944Z,62.10
2022-09-07T01:44:53.474Z,63.00
2022-09-07T01:48:59.692Z,64.80
2022-09-07T01:53:07.417Z,66.10
2022-09-07T01:57:13.896Z,67.20
2022-09-07T02:01:23.989Z,68.30
2022-09-07T02:05:31.542Z,69.20
2022-09-07T02:09:38.379Z,69.90
2022-09-07T02:13:43.871Z,70.40
2022-09-07T02:17:53.280Z,70.70
2022-09-07T02:22:01.550Z,71.20
2022-09-07T02:26:09.323Z,71.60
2022-09-07T02:30:13.360Z,72.10
2022-09-07T02:34:17.484Z,72.90
2022-09-07T02:38:20.642Z,74.10
2022-09-07T02:42:23.482Z,75.40
2022-09-07T02:46:45.644Z,78.30
2022-09-07T02:51:04.289Z,79.70
2022-09-07T02:55:16.667Z,82.10
2022-09-07T02:59:33.379Z,83.40
2022-09-07T03:03:44.717Z,86.70
2022-09-07T03:07:55.478Z,88.00
2022-09-07T03:11:58.549Z,90.20
2022-09-07T03:16:01.549Z,90.30
2022-09-07T03:20:04.955Z,90.90
2022-09-07T03:24:09.493Z,91.60
2022-09-07T03:28:12.525Z,91.60
2022-09-07T03:32:15.280Z,92.10
2022-09-07T03:36:18.061Z,92.00
2022-09-07T03:40:22.226Z,92.60
2022-09-07T03:44:24.998Z,92.30
2022-09-07T03:48:27.900Z,92.30
2022-09-07T03:52:30.793Z,92.60
2022-09-07T03:56:34.929Z,92.50
2022-09-07T04:00:42.009Z,92.80
2022-09-07T04:04:46.043Z,93.10
2022-09-07T04:08:48.792Z,92.90
2022-09-07T04:12:52.882Z,93.00
2022-09-07T04:16:55.775Z,93.40
2022-09-07T04:21:00.025Z,93.60
2022-09-07T04:25:02.844Z,93.70
2022-09-07T04:29:08.655Z,93.80
2022-09-07T04:33:12.191Z,93.90
2022-09-07T04:37:14.957Z,93.60
2022-09-07T04:41:19.615Z,93.60
2022-09-07T04:45:23.796Z,93.80
2022-09-07T04:49:26.626Z,94.00
2022-09-07T04:53:29.747Z,94.20
2022-09-07T04:57:32.672Z,94.20
2022-09-07T05:01:36.825Z,93.90
2022-09-07T05:05:39.841Z,93.60
2022-09-07T05:09:42.904Z,93.70
2022-09-07T05:13:45.710Z,94.00
2022-09-07T05:17:50.106Z,94.00
2022-09-07T05:21:52.854Z,93.90
2022-09-07T05:25:55.585Z,93.80
2022-09-07T05:38:32.391Z,93.40
2022-09-07T05:42:36.319Z,93.80
2022-09-07T05:46:39.090Z,93.70
2022-09-07T05:50:51.011Z,93.50
2022-09-07T05:54:59.244Z,93.30
2022-09-07T05:59:10.620Z,93.20
2022-09-07T06:03:13.560Z,93.20
2022-09-07T06:07:22.135Z,93.00
2022-09-07T06:11:27.263Z,93.10
2022-09-07T06:15:30.170Z,93.10
2022-09-07T06:19:32.905Z,92.90
2022-09-07T06:23:38.816Z,92.70
2022-09-07T06:27:41.570Z,92.50
2022-09-07T06:36:09.504Z,92.60
2022-09-07T06:40:13.967Z,92.40
2022-09-07T06:44:16.814Z,92.40
2022-09-07T06:48:19.560Z,92.40
2022-09-07T06:52:22.567Z,92.20
2022-09-07T06:56:27.349Z,92.10
2022-09-07T07:00:30.106Z,91.80
2022-09-07T07:04:37.794Z,91.80
2022-09-07T07:08:43.498Z,91.70
2022-09-07T07:12:47.574Z,91.40
2022-09-07T07:16:50.334Z,91.40
2022-09-07T07:20:53.142Z,91.40
2022-09-07T07:24:55.898Z,91.40
2022-09-07T07:33:08.068Z,90.80
2022-09-07T07:37:10.818Z,90.80
2022-09-07T07:54:19.712Z,90.30
2022-09-07T07:58:22.553Z,89.10
2022-09-07T08:02:26.635Z,88.70
2022-09-07T08:06:29.738Z,87.60
2022-09-07T08:10:32.506Z,84.90
2022-09-07T08:14:36.538Z,84.70
2022-09-07T08:18:41.004Z,82.80
2022-09-07T08:22:43.989Z,81.60
2022-09-07T08:26:46.711Z,80.60
2022-09-07T08:30:49.430Z,77.20
2022-09-07T08:34:53.695Z,76.90
2022-09-07T08:38:56.423Z,76.50
2022-09-07T08:43:07.580Z,72.70
2022-09-07T08:47:21.890Z,69.80
2022-09-07T08:51:34.849Z,68.60
2022-09-07T08:55:42.056Z,66.80
2022-09-07T08:59:50.057Z,66.00
2022-09-07T09:08:28.524Z,61.30
2022-09-07T09:12:44.877Z,61.90
2022-09-07T09:16:52.984Z,61.90
2022-09-07T09:20:57.711Z,60.80
2022-09-07T09:25:15.581Z,61.60
2022-09-07T09:29:21.073Z,61.80
2022-09-07T09:33:25.862Z,63.60
2022-09-07T09:37:35.901Z,62.80
2022-09-07T09:41:40.475Z,61.60
2022-09-07T09:54:44.358Z,60.00
2022-09-07T10:07:52.838Z,59.00
2022-09-07T10:12:08.284Z,58.30
2022-09-07T10:16:13.087Z,58.40
2022-09-07T10:20:32.192Z,59.00
2022-09-07T10:24:39.466Z,58.40
2022-09-07T10:33:12.130Z,58.10
2022-09-07T10:37:25.158Z,57.90
2022-09-07T10:41:41.876Z,57.90
2022-09-07T10:46:03.428Z,57.70
2022-09-07T10:50:25.375Z,57.50
2022-09-07T10:54:37.090Z,57.90
2022-09-07T10:59:09.149Z,57.90
2022-09-07T11:03:28.051Z,57.20
2022-09-07T11:07:55.203Z,57.40
2022-09-07T11:12:04.272Z,57.40
2022-09-07T11:16:50.416Z,57.80
2022-09-07T11:20:40.292Z,58.10
2022-09-07T11:25:29.080Z,58.10
2022-09-07T11:29:34.710Z,58.30
2022-09-07T11:34:23.789Z,58.10
2022-09-07T11:38:15.334Z,57.90
2022-09-07T11:46:49.928Z,56.90
2022-09-07T11:50:58.499Z,56.70
2022-09-07T11:55:05.324Z,56.60
2022-09-07T11:59:23.709Z,56.10
2022-09-07T12:03:51.652Z,55.90
2022-09-07T12:08:17.190Z,55.80
2022-09-07T12:12:48.908Z,55.70
2022-09-07T12:17:15.872Z,55.00
2022-09-07T12:21:43.697Z,55.20
2022-09-07T12:25:48.450Z,55.90
2022-09-07T12:30:12.482Z,56.90
2022-09-07T12:35:01.196Z,57.20
2022-09-07T12:39:24.666Z,56.40
2022-09-07T12:44:08.558Z,56.60
2022-09-07T12:48:23.796Z,56.60
2022-09-07T12:52:46.634Z,56.80
2022-09-07T13:01:31.566Z,56.80
2022-09-07T13:05:47.032Z,56.00
2022-09-07T13:09:57.346Z,55.40
2022-09-07T13:14:08.487Z,56.10
2022-09-07T13:18:37.383Z,56.00
2022-09-07T13:22:56.933Z,55.30
2022-09-07T13:27:02.906Z,55.40
2022-09-07T13:31:22.049Z,55.10
2022-09-07T13:35:26.289Z,55.40
2022-09-07T13:39:39.810Z,55.70
2022-09-07T13:43:48.373Z,56.60
2022-09-07T13:47:59.605Z,56.70
2022-09-07T13:52:08.967Z,56.90
2022-09-07T13:56:19.998Z,56.20
2022-09-07T14:00:22.838Z,55.60
2022-09-07T14:04:28.384Z,55.30
2022-09-07T14:08:31.306Z,55.00
2022-09-07T14:12:43.393Z,55.30
2022-09-07T14:16:54.612Z,55.30
2022-09-07T14:20:58.976Z,55.10
2022-09-07T14:25:03.471Z,56.20
2022-09-07T14:29:21.669Z,56.00
2022-09-07T14:33:24.631Z,56.30
2022-09-07T14:37:29.550Z,55.60
2022-09-07T14:41:34.712Z,55.40
2022-09-07T14:45:37.991Z,55.40
2022-09-07T14:49:40.906Z,54.80
2022-09-07T14:53:50.422Z,54.40
2022-09-07T14:58:23.078Z,53.90
2022-09-07T15:02:33.664Z,53.10
2022-09-07T15:15:33.215Z,53.10
2022-09-07T15:19:36.010Z,54.10
2022-09-07T15:23:39.915Z,54.40
2022-09-07T15:27:44.008Z,54.60
2022-09-07T15:31:57.013Z,54.70
2022-09-07T15:36:04.655Z,55.20
2022-09-07T15:40:16.488Z,55.90
2022-09-07T15:44:25.211Z,55.30
2022-09-07T15:48:29.438Z,54.90
2022-09-07T15:52:32.616Z,55.20
2022-09-07T15:56:36.873Z,55.80
2022-09-07T16:00:41.220Z,56.20
2022-09-07T16:04:44.523Z,56.80
2022-09-07T16:08:51.477Z,56.60
2022-09-07T16:13:03.105Z,56.60
2022-09-07T16:17:35.636Z,56.80
2022-09-07T16:21:41.027Z,56.60
2022-09-07T16:25:59.034Z,56.10
2022-09-07T16:30:05.198Z,56.20
2022-09-07T16:34:09.299Z,56.40
2022-09-07T16:42:37.463Z,57.00
2022-09-07T16:46:40.394Z,57.40
2022-09-07T16:50:58.944Z,57.80
2022-09-07T16:55:05.147Z,58.70
2022-09-07T16:59:09.423Z,59.30
2022-09-07T17:03:13.364Z,60.00
2022-09-07T17:07:17.460Z,60.30
2022-09-07T17:11:22.318Z,61.10
2022-09-07T17:15:27.446Z,61.10
2022-09-07T17:19:30.521Z,61.40
2022-09-07T17:23:44.524Z,61.70
2022-09-07T17:27:50.725Z,61.90
2022-09-07T17:36:18.426Z,62.90
2022-09-07T17:40:23.479Z,63.40
2022-09-07T17:44:29.822Z,63.90
2022-09-07T17:48:37.349Z,64.30
2022-09-07T17:52:41.228Z,65.00
2022-09-07T17:56:49.706Z,64.90
2022-09-07T18:00:53.147Z,65.50
2022-09-07T18:04:56.092Z,65.90
2022-09-07T18:09:02.877Z,66.40
2022-09-07T18:13:07.257Z,66.80
2022-09-07T18:17:10.157Z,67.10
2022-09-07T18:21:15.304Z,67.50
2022-09-07T18:25:18.349Z,68.00
2022-09-07T18:29:34.039Z,68.40
2022-09-07T18:33:37.787Z,68.40
2022-09-07T18:37:40.556Z,69.30
2022-09-07T18:41:43.354Z,69.30
2022-09-07T18:45:47.441Z,69.70
2022-09-07T18:49:50.726Z,70.20
2022-09-07T18:53:53.470Z,70.50
2022-09-07T18:57:56.229Z,70.60
2022-09-07T19:02:04.470Z,71.10
2022-09-07T19:06:12.804Z,71.00
2022-09-07T19:10:16.718Z,71.30
2022-09-07T19:14:19.683Z,72.20
2022-09-07T19:18:23.773Z,73.30
2022-09-07T19:22:27.224Z,73.60
2022-09-07T19:26:32.931Z,74.30
2022-09-07T19:30:36.272Z,74.90
2022-09-07T19:34:42.341Z,75.30
2022-09-07T19:38:45.517Z,75.30
2022-09-07T19:42:48.205Z,76.40
2022-09-07T19:46:51.174Z,77.20
2022-09-07T19:50:55.389Z,77.70
2022-09-07T19:55:00.302Z,78.00
2022-09-07T19:59:03.930Z,78.00
2022-09-07T20:03:10.845Z,78.40
2022-09-07T20:07:15.227Z,78.00
2022-09-07T20:11:18.894Z,77.80
2022-09-07T20:15:21.649Z,78.10
2022-09-07T20:19:24.543Z,78.00
2022-09-07T20:23:28.629Z,77.90
2022-09-07T20:27:32.111Z,78.40
2022-09-07T20:31:34.968Z,78.60
2022-09-07T20:35:37.742Z,79.10
2022-09-07T20:39:41.908Z,79.50
2022-09-07T20:43:44.779Z,79.80
2022-09-07T20:47:47.489Z,79.90
2022-09-07T20:51:50.226Z,80.00
2022-09-07T20:56:00.851Z,80.20
2022-09-07T21:00:04.108Z,80.40
2022-09-07T21:04:06.808Z,80.80
2022-09-07T21:08:09.650Z,81.20
2022-09-07T21:12:13.716Z,81.30
2022-09-07T21:16:17.506Z,81.90
2022-09-07T21:20:20.205Z,82.30
2022-09-07T21:24:24.536Z,82.60
2022-09-07T21:28:29.426Z,82.30
2022-09-07T21:32:32.361Z,82.50
2022-09-07T21:36:35.127Z,82.40
2022-09-07T21:40:41.350Z,82.70
2022-09-07T21:44:47.080Z,83.10
2022-09-07T21:48:49.815Z,82.80
2022-09-07T21:52:52.535Z,83.30
2022-09-07T21:56:55.217Z,83.10
2022-09-07T22:01:01.137Z,82.80
2022-09-07T22:05:04.068Z,82.10
2022-09-07T22:09:06.838Z,81.50
2022-09-07T22:13:09.565Z,82.00
2022-09-07T22:17:14.151Z,82.00
2022-09-07T22:21:19.445Z,81.90
2022-09-07T22:25:22.180Z,81.60
2022-09-07T22:29:24.947Z,81.60
2022-09-07T22:33:28.997Z,81.80
2022-09-07T22:37:32.178Z,82.10
2022-09-07T22:41:36.719Z,82.30
2022-09-07T22:45:39.515Z,82.20
2022-09-07T22:49:43.603Z,82.40
2022-09-07T22:53:46.372Z,82.50
2022-09-07T22:57:49.079Z,82.40
2022-09-07T23:01:51.803Z,82.60
2022-09-07T23:05:56.728Z,83.10
2022-09-07T23:10:00.813Z,82.80
2022-09-07T23:14:06.490Z,82.80
2022-09-07T23:18:09.534Z,82.80
2022-09-07T23:22:14.291Z,83.10
2022-09-07T23:26:17.110Z,83.60
2022-09-07T23:30:19.903Z,83.90
2022-09-07T23:34:22.651Z,84.40
2022-09-07T23:38:27.320Z,85.40
2022-09-07T23:42:30.026Z,85.00
2022-09-07T23:46:32.816Z,84.90
2022-09-07T23:50:35.625Z,84.50
2022-09-07T23:54:39.762Z,84.60
2022-09-07T23:58:43.469Z,85.20
